createdAt,value
2022-08-07T00:00:25.576Z,73.53
2022-08-07T00:02:53.701Z,73.87
2022-08-07T00:05:23.477Z,73.75
2022-08-07T00:07:59.838Z,74.08
2022-08-07T00:10:30.605Z,74.22
2022-08-07T00:13:01.755Z,74.46
2022-08-07T00:15:38.123Z,74.10
2022-08-07T00:18:19.538Z,73.96
2022-08-07T00:20:49.594Z,73.78
2022-08-07T00:23:17.069Z,74.17
2022-08-07T00:25:45.991Z,73.87
2022-08-07T00:28:33.331Z,74.05
2022-08-07T00:31:12.368Z,74.31
2022-08-07T00:33:40.664Z,74.65
2022-08-07T00:36:08.555Z,74.99
2022-08-07T00:38:36.892Z,74.99
2022-08-07T00:41:10.118Z,74.91
2022-08-07T00:44:01.016Z,74.93
2022-08-07T00:46:30.129Z,75.30
2022-08-07T00:49:02.154Z,75.25
2022-08-07T00:51:58.472Z,75.44
2022-08-07T00:54:19.655Z,75.98
2022-08-07T00:56:49.587Z,75.94
2022-08-07T00:59:17.580Z,76.09
2022-08-07T01:01:48.646Z,75.45
2022-08-07T01:04:21.674Z,75.02
2022-08-07T01:06:51.720Z,75.54
2022-08-07T01:10:06.557Z,75.84
2022-08-07T01:12:27.885Z,75.62
2022-08-07T01:14:57.121Z,75.36
2022-08-07T01:17:29.463Z,75.55
2022-08-07T01:20:08.058Z,75.68
2022-08-07T01:22:36.601Z,76.21
2022-08-07T01:25:20.771Z,76.29
2022-08-07T01:27:51.357Z,76.59
2022-08-07T01:30:18.966Z,76.44
2022-08-07T01:32:45.702Z,76.12
2022-08-07T01:35:12.937Z,76.30
2022-08-07T01:37:43.916Z,76.36
2022-08-07T01:40:14.816Z,76.69
2022-08-07T01:42:58.847Z,77.02
2022-08-07T01:45:36.359Z,76.90
2022-08-07T01:48:20.585Z,77.50
2022-08-07T01:50:55.777Z,76.83
2022-08-07T01:54:11.582Z,77.14
2022-08-07T01:56:13.277Z,76.97
2022-08-07T01:58:45.192Z,77.14
2022-08-07T02:01:37.689Z,77.54
2022-08-07T02:04:08.108Z,77.66
2022-08-07T02:06:36.112Z,77.30
2022-08-07T02:09:04.606Z,77.07
2022-08-07T02:12:03.645Z,77.26
2022-08-07T02:14:36.277Z,77.52
2022-08-07T02:17:08.473Z,77.63
2022-08-07T02:20:06.975Z,77.65
2022-08-07T02:22:25.759Z,77.86
2022-08-07T02:24:54.695Z,77.58
2022-08-07T02:27:23.084Z,77.18
2022-08-07T02:29:54.633Z,77.59
2022-08-07T02:32:23.277Z,77.70
2022-08-07T02:34:51.505Z,78.05
2022-08-07T02:37:18.883Z,78.11
2022-08-07T02:40:02.119Z,77.96
2022-08-07T02:42:34.002Z,77.51
2022-08-07T02:45:07.211Z,77.48
2022-08-07T02:47:49.227Z,76.97
2022-08-07T02:50:18.423Z,77.55
2022-08-07T02:52:53.389Z,77.75
2022-08-07T02:56:03.128Z,77.95
2022-08-07T02:58:21.557Z,78.30
2022-08-07T03:00:50.514Z,77.88
2022-08-07T03:03:22.563Z,77.92
2022-08-07T03:05:53.586Z,77.93
2022-08-07T03:08:29.156Z,78.34
2022-08-07T03:10:57.650Z,78.30
2022-08-07T03:13:24.735Z,78.70
2022-08-07T03:15:56.309Z,78.67
2022-08-07T03:18:34.295Z,78.47
2022-08-07T03:21:03.490Z,78.57
2022-08-07T03:23:33.804Z,78.47
2022-08-07T03:26:21.218Z,78.84
2022-08-07T03:28:51.804Z,78.87
2022-08-07T03:31:23.730Z,78.96
2022-08-07T03:33:56.399Z,78.89
2022-08-07T03:36:25.952Z,78.67
2022-08-07T03:38:58.082Z,79.05
2022-08-07T03:41:42.525Z,78.84
2022-08-07T03:44:15.348Z,78.96
2022-08-07T03:47:10.824Z,78.69
2022-08-07T03:49:30.754Z,78.52
2022-08-07T03:52:01.828Z,78.39
2022-08-07T03:54:36.366Z,78.50
2022-08-07T03:58:33.181Z,78.36
2022-08-07T04:00:05.511Z,77.95
2022-08-07T04:02:33.181Z,77.84
2022-08-07T04:04:59.987Z,77.97
2022-08-07T04:07:41.669Z,78.54
2022-08-07T04:10:15.713Z,78.43
2022-08-07T04:12:47.454Z,78.50
2022-08-07T04:15:16.070Z,78.56
2022-08-07T04:18:57.462Z,78.50
2022-08-07T04:20:32.402Z,78.66
2022-08-07T04:23:06.301Z,78.59
2022-08-07T04:25:39.205Z,78.27
2022-08-07T04:28:13.263Z,78.22
2022-08-07T04:30:55.467Z,77.85
2022-08-07T04:33:27.055Z,78.07
2022-08-07T04:35:55.115Z,78.05
2022-08-07T04:38:22.530Z,78.07
2022-08-07T04:40:51.722Z,77.97
2022-08-07T04:44:09.565Z,77.67
2022-08-07T04:46:29.253Z,77.85
2022-08-07T04:49:17.997Z,77.56
2022-08-07T04:52:25.065Z,77.16
2022-08-07T04:58:07.974Z,77.23
2022-08-07T04:59:17.536Z,77.23
2022-08-07T05:02:02.126Z,77.00
2022-08-07T05:04:36.147Z,76.69
2022-08-07T05:07:30.672Z,76.16
2022-08-07T05:10:33.227Z,76.29
2022-08-07T05:14:53.044Z,75.62
2022-08-07T05:16:04.745Z,75.00
2022-08-07T05:18:35.523Z,74.99
2022-08-07T05:21:13.017Z,75.15
2022-08-07T05:23:49.837Z,74.66
2022-08-07T05:26:23.952Z,74.29
2022-08-07T05:28:57.392Z,74.30
2022-08-07T05:31:35.088Z,74.18
2022-08-07T05:34:11.424Z,73.26
2022-08-07T05:36:53.002Z,73.32
2022-08-07T05:40:14.345Z,73.22
2022-08-07T05:42:12.338Z,73.19
2022-08-07T05:44:46.624Z,73.22
2022-08-07T05:47:38.108Z,73.12
2022-08-07T05:50:16.876Z,72.80
2022-08-07T05:52:43.681Z,72.68
2022-08-07T05:55:11.550Z,72.44
2022-08-07T05:57:43.030Z,72.03
2022-08-07T06:00:16.084Z,71.94
2022-08-07T06:02:45.200Z,71.78
2022-08-07T06:05:15.890Z,71.51
2022-08-07T06:08:14.571Z,71.04
2022-08-07T06:10:29.479Z,70.97
2022-08-07T06:12:56.382Z,70.84
2022-08-07T06:15:39.091Z,70.29
2022-08-07T06:18:09.867Z,69.96
2022-08-07T06:20:51.127Z,69.53
2022-08-07T06:24:38.625Z,69.53
2022-08-07T06:26:15.667Z,68.94
2022-08-07T06:29:11.723Z,68.20
2022-08-07T06:31:49.817Z,67.26
2022-08-07T06:34:19.609Z,67.15
2022-08-07T06:36:47.258Z,66.70
2022-08-07T06:40:17.060Z,66.25
2022-08-07T06:42:04.217Z,66.09
2022-08-07T06:44:34.032Z,65.77
2022-08-07T06:47:10.611Z,65.43
2022-08-07T06:49:52.135Z,65.07
2022-08-07T06:52:31.918Z,64.55
2022-08-07T06:55:34.339Z,64.14
2022-08-07T06:57:56.870Z,63.67
2022-08-07T07:00:24.786Z,63.32
2022-08-07T07:02:54.193Z,60.70
2022-08-07T07:06:03.164Z,58.99
2022-08-07T07:08:18.532Z,56.85
2022-08-07T07:10:56.652Z,56.68
2022-08-07T07:13:58.458Z,55.13
2022-08-07T07:16:39.166Z,55.12
2022-08-07T07:19:57.179Z,54.17
2022-08-07T07:22:34.480Z,54.04
2022-08-07T07:26:31.084Z,52.65
2022-08-07T07:28:03.505Z,53.18
2022-08-07T07:30:40.024Z,51.85
2022-08-07T07:33:13.683Z,52.14
2022-08-07T07:36:04.042Z,53.02
2022-08-07T07:38:34.975Z,51.39
2022-08-07T07:41:08.606Z,50.95
2022-08-07T07:44:14.158Z,50.13
2022-08-07T07:46:40.465Z,49.84
2022-08-07T07:50:33.099Z,50.33
2022-08-07T07:52:07.651Z,49.78
2022-08-07T07:54:37.135Z,49.54
2022-08-07T07:57:06.792Z,49.45
2022-08-07T07:59:52.422Z,48.94
2022-08-07T08:02:34.292Z,48.63
2022-08-07T08:05:14.430Z,48.65
2022-08-07T08:07:51.430Z,48.74
2022-08-07T08:10:37.787Z,48.86
2022-08-07T08:13:10.619Z,48.67
2022-08-07T08:15:58.774Z,48.93
2022-08-07T08:18:28.544Z,48.01
2022-08-07T08:20:59.326Z,47.32
2022-08-07T08:23:47.465Z,47.15
2022-08-07T08:26:34.841Z,45.94
2022-08-07T08:29:03.872Z,45.40
2022-08-07T08:32:18.190Z,45.25
2022-08-07T08:34:27.028Z,44.88
2022-08-07T08:36:58.492Z,45.31
2022-08-07T08:39:39.442Z,43.91
2022-08-07T08:42:25.850Z,42.60
2022-08-07T08:44:58.381Z,41.64
2022-08-07T08:47:31.572Z,40.93
2022-08-07T08:50:35.094Z,40.87
2022-08-07T08:53:22.707Z,40.83
2022-08-07T08:55:59.515Z,40.83
2022-08-07T08:58:36.367Z,40.50
2022-08-07T09:01:15.798Z,40.11
2022-08-07T09:04:13.439Z,40.47
2022-08-07T09:07:16.842Z,40.75
2022-08-07T09:10:11.643Z,40.58
2022-08-07T09:13:37.580Z,40.68
2022-08-07T09:16:31.041Z,40.80
2022-08-07T09:19:50.577Z,40.03
2022-08-07T09:24:33.578Z,39.50
2022-08-07T09:25:17.614Z,39.06
2022-08-07T09:28:01.667Z,40.05
2022-08-07T09:30:46.284Z,39.14
2022-08-07T09:33:41.231Z,38.74
2022-08-07T09:36:15.335Z,40.07
2022-08-07T09:38:50.270Z,38.12
2022-08-07T09:41:58.984Z,37.76
2022-08-07T09:47:25.785Z,38.04
2022-08-07T09:47:59.101Z,37.70
2022-08-07T09:50:34.935Z,38.18
2022-08-07T09:53:12.489Z,37.41
2022-08-07T09:56:04.586Z,37.57
2022-08-07T09:58:34.804Z,37.15
2022-08-07T10:01:14.995Z,36.70
2022-08-07T10:04:39.339Z,36.73
2022-08-07T10:07:52.669Z,36.97
2022-08-07T10:11:00.138Z,35.67
2022-08-07T10:13:55.588Z,36.51
2022-08-07T10:16:36.567Z,35.84
2022-08-07T10:19:37.676Z,35.53
2022-08-07T10:23:00.657Z,35.35
2022-08-07T10:25:56.138Z,35.09
2022-08-07T10:28:35.349Z,35.93
2022-08-07T10:31:12.177Z,34.44
2022-08-07T10:34:05.888Z,35.02
2022-08-07T10:36:59.452Z,34.87
2022-08-07T10:40:08.730Z,34.04
2022-08-07T10:42:47.203Z,34.04
2022-08-07T10:45:48.044Z,34.53
2022-08-07T10:48:48.986Z,33.43
2022-08-07T10:51:39.468Z,33.55
2022-08-07T10:54:17.402Z,33.78
2022-08-07T10:57:00.224Z,34.41
2022-08-07T10:59:47.301Z,33.65
2022-08-07T11:02:49.190Z,32.46
2022-08-07T11:05:51.052Z,31.96
2022-08-07T11:08:49.397Z,31.11
2022-08-07T11:11:31.027Z,31.02
2022-08-07T11:14:45.668Z,31.33
2022-08-07T11:17:46.405Z,31.79
2022-08-07T11:20:31.263Z,30.92
2022-08-07T11:23:03.629Z,31.07
2022-08-07T11:25:50.332Z,32.64
2022-08-07T11:28:26.850Z,32.42
2022-08-07T11:31:12.421Z,32.15
2022-08-07T11:34:00.786Z,31.88
2022-08-07T11:36:43.766Z,31.49
2022-08-07T11:39:39.810Z,32.41
2022-08-07T11:42:29.554Z,32.27
2022-08-07T11:45:12.331Z,32.09
2022-08-07T11:47:56.132Z,32.15
2022-08-07T11:50:35.167Z,32.30
2022-08-07T11:53:01.806Z,32.18
2022-08-07T11:56:25.585Z,32.55
2022-08-07T11:59:00.951Z,32.63
2022-08-07T12:01:59.712Z,32.48
2022-08-07T12:04:46.373Z,32.80
2022-08-07T12:07:27.523Z,33.64
2022-08-07T12:10:02.128Z,33.83
2022-08-07T12:12:47.931Z,33.90
2022-08-07T12:16:05.293Z,33.96
2022-08-07T12:18:45.876Z,33.23
2022-08-07T12:21:56.063Z,33.69
2022-08-07T12:24:37.296Z,33.71
2022-08-07T12:27:15.922Z,33.53
2022-08-07T12:29:54.044Z,33.79
2022-08-07T12:32:45.266Z,33.88
2022-08-07T12:35:17.554Z,34.52
2022-08-07T12:38:08.976Z,33.97
2022-08-07T12:40:48.570Z,34.49
2022-08-07T12:44:02.888Z,34.24
2022-08-07T12:46:15.871Z,33.74
2022-08-07T12:49:09.990Z,33.42
2022-08-07T12:52:12.260Z,33.29
2022-08-07T12:54:59.035Z,32.74
2022-08-07T12:57:38.918Z,33.13
2022-08-07T13:00:34.485Z,32.90
2022-08-07T13:03:10.888Z,32.20
2022-08-07T13:06:21.687Z,32.49
2022-08-07T13:10:10.920Z,31.60
2022-08-07T13:12:25.581Z,31.48
2022-08-07T13:15:11.120Z,31.91
2022-08-07T13:18:26.525Z,31.35
2022-08-07T13:21:12.265Z,31.64
2022-08-07T13:24:05.431Z,32.36
2022-08-07T13:26:34.824Z,31.21
2022-08-07T13:29:10.499Z,31.38
2022-08-07T13:31:57.460Z,31.60
2022-08-07T13:34:44.859Z,31.86
2022-08-07T13:37:24.452Z,31.98
2022-08-07T13:40:35.645Z,31.43
2022-08-07T13:43:06.778Z,32.80
2022-08-07T13:46:12.830Z,33.29
2022-08-07T13:48:34.569Z,33.67
2022-08-07T13:51:20.490Z,33.74
2022-08-07T13:54:07.551Z,34.04
2022-08-07T13:56:41.148Z,34.33
2022-08-07T13:59:27.082Z,34.17
2022-08-07T14:02:10.114Z,34.66
2022-08-07T14:04:50.285Z,35.24
2022-08-07T14:07:27.944Z,34.87
2022-08-07T14:10:02.722Z,35.00
2022-08-07T14:12:54.923Z,35.32
2022-08-07T14:15:31.885Z,35.01
2022-08-07T14:18:29.101Z,34.50
2022-08-07T14:21:21.043Z,33.40
2022-08-07T14:24:03.660Z,34.29
2022-08-07T14:26:40.858Z,33.56
2022-08-07T14:30:04.985Z,32.96
2022-08-07T14:32:10.606Z,32.01
2022-08-07T14:34:47.264Z,32.06
2022-08-07T14:37:18.206Z,32.07
2022-08-07T14:40:17.437Z,31.49
2022-08-07T14:45:47.091Z,30.04
2022-08-07T14:48:19.891Z,30.06
2022-08-07T14:51:00.164Z,29.34
2022-08-07T14:54:03.575Z,29.66
2022-08-07T14:56:29.986Z,29.26
2022-08-07T14:59:02.719Z,30.28
2022-08-07T15:01:42.764Z,28.99
2022-08-07T15:04:21.901Z,29.46
2022-08-07T15:06:52.779Z,29.19
2022-08-07T15:09:57.275Z,28.84
2022-08-07T15:12:30.487Z,27.81
2022-08-07T15:15:21.320Z,28.56
2022-08-07T15:17:56.928Z,28.34
2022-08-07T15:20:54.600Z,31.35
2022-08-07T15:26:23.045Z,31.84
2022-08-07T15:30:04.384Z,31.54
2022-08-07T15:32:02.023Z,31.40
2022-08-07T15:34:50.277Z,31.05
2022-08-07T15:37:29.242Z,31.44
2022-08-07T15:43:33.151Z,31.25
2022-08-07T15:46:31.473Z,31.37
2022-08-07T15:49:16.924Z,31.11
2022-08-07T15:54:34.121Z,32.18
2022-08-07T15:57:03.070Z,32.44
2022-08-07T15:59:40.032Z,32.66
2022-08-07T16:02:21.332Z,34.35
2022-08-07T16:04:57.826Z,35.47
2022-08-07T16:08:32.925Z,35.81
2022-08-07T16:10:21.983Z,36.41
2022-08-07T16:13:17.514Z,36.87
2022-08-07T16:16:47.791Z,37.20
2022-08-07T16:19:16.038Z,37.35
2022-08-07T16:22:04.955Z,37.46
2022-08-07T16:24:52.549Z,39.65
2022-08-07T16:27:19.544Z,40.90
2022-08-07T16:30:10.657Z,41.58
2022-08-07T16:32:54.897Z,41.78
2022-08-07T16:35:50.347Z,42.52
2022-08-07T16:38:44.439Z,42.52
2022-08-07T16:41:11.981Z,44.10
2022-08-07T16:44:06.017Z,43.13
2022-08-07T16:47:16.568Z,41.74
2022-08-07T16:50:29.366Z,43.90
2022-08-07T16:53:14.805Z,43.81
2022-08-07T16:55:49.346Z,43.20
2022-08-07T16:58:21.924Z,43.47
2022-08-07T17:01:08.179Z,44.19
2022-08-07T17:03:59.498Z,45.02
2022-08-07T17:06:50.209Z,46.31
2022-08-07T17:10:06.126Z,46.11
2022-08-07T17:12:55.267Z,46.17
2022-08-07T17:15:44.594Z,46.69
2022-08-07T17:18:28.224Z,46.29
2022-08-07T17:20:55.140Z,46.98
2022-08-07T17:23:32.547Z,46.14
2022-08-07T17:26:06.026Z,47.50
2022-08-07T17:30:12.672Z,47.86
2022-08-07T17:32:06.207Z,47.46
2022-08-07T17:34:57.245Z,46.57
2022-08-07T17:38:09.297Z,47.73
2022-08-07T17:40:30.705Z,48.14
2022-08-07T17:43:17.780Z,47.56
2022-08-07T17:45:58.966Z,48.16
2022-08-07T17:48:31.982Z,48.24
2022-08-07T17:51:07.844Z,47.42
2022-08-07T17:54:00.151Z,47.33
2022-08-07T17:56:49.377Z,47.40
2022-08-07T17:59:57.641Z,48.73
2022-08-07T18:02:53.999Z,48.28
2022-08-07T18:05:26.059Z,47.46
2022-08-07T18:08:31.188Z,50.42
2022-08-07T18:12:07.487Z,48.67
2022-08-07T18:14:01.626Z,50.45
2022-08-07T18:16:58.047Z,49.94
2022-08-07T18:21:08.365Z,50.36
2022-08-07T18:22:27.545Z,50.15
2022-08-07T18:25:18.858Z,52.16
2022-08-07T18:27:57.398Z,52.78
2022-08-07T18:30:32.976Z,51.41
2022-08-07T18:33:11.013Z,52.12
2022-08-07T18:35:53.627Z,53.68
2022-08-07T18:38:56.529Z,51.53
2022-08-07T18:41:44.697Z,53.42
2022-08-07T18:44:15.621Z,51.25
2022-08-07T18:47:01.794Z,50.08
2022-08-07T18:50:19.570Z,50.33
2022-08-07T18:52:40.924Z,52.95
2022-08-07T18:55:40.646Z,51.61
2022-08-07T18:58:19.844Z,54.27
2022-08-07T19:01:02.506Z,52.68
2022-08-07T19:03:49.634Z,53.28
2022-08-07T19:06:21.777Z,54.04
2022-08-07T19:09:09.318Z,50.98
2022-08-07T19:12:08.038Z,53.50
2022-08-07T19:14:42.411Z,53.14
2022-08-07T19:17:55.799Z,52.15
2022-08-07T19:20:28.895Z,53.48
2022-08-07T19:23:02.008Z,56.38
2022-08-07T19:26:22.682Z,54.08
2022-08-07T19:30:54.736Z,54.98
2022-08-07T19:31:59.794Z,54.73
2022-08-07T19:34:32.705Z,55.36
2022-08-07T19:37:10.193Z,56.41
2022-08-07T19:39:57.224Z,57.31
2022-08-07T19:42:30.328Z,56.44
2022-08-07T19:45:08.685Z,55.40
2022-08-07T19:47:42.003Z,54.56
2022-08-07T19:50:41.093Z,55.00
2022-08-07T19:52:58.384Z,54.56
2022-08-07T19:55:57.563Z,55.23
2022-08-07T19:58:15.549Z,55.08
2022-08-07T20:00:55.251Z,56.33
2022-08-07T20:03:34.505Z,58.46
2022-08-07T20:06:04.442Z,55.94
2022-08-07T20:08:34.193Z,56.74
2022-08-07T20:11:03.676Z,60.97
2022-08-07T20:13:43.727Z,59.60
2022-08-07T20:16:15.720Z,58.36
2022-08-07T20:18:59.472Z,60.16
2022-08-07T20:21:29.182Z,62.24
2022-08-07T20:24:14.838Z,62.43
2022-08-07T20:26:50.200Z,61.96
2022-08-07T20:29:49.187Z,61.55
2022-08-07T20:32:11.298Z,60.25
2022-08-07T20:34:51.569Z,61.23
2022-08-07T20:37:23.340Z,59.88
2022-08-07T20:40:02.080Z,59.87
2022-08-07T20:42:32.470Z,60.24
2022-08-07T20:45:01.276Z,60.88
2022-08-07T20:47:41.909Z,61.73
2022-08-07T20:50:20.275Z,62.09
2022-08-07T20:52:51.972Z,62.15
2022-08-07T20:55:23.478Z,61.72
2022-08-07T20:58:03.393Z,60.07
2022-08-07T21:00:42.806Z,59.96
2022-08-07T21:03:12.104Z,58.76
2022-08-07T21:05:52.694Z,59.79
2022-08-07T21:08:37.580Z,59.93
2022-08-07T21:11:10.809Z,61.66
2022-08-07T21:13:57.446Z,60.63
2022-08-07T21:16:33.352Z,62.19
2022-08-07T21:19:00.305Z,59.73
2022-08-07T21:21:30.134Z,59.47
2022-08-07T21:24:00.013Z,59.36
2022-08-07T21:26:31.453Z,59.48
2022-08-07T21:29:05.380Z,60.82
2022-08-07T21:32:42.425Z,63.84
2022-08-07T21:34:32.578Z,61.13
2022-08-07T21:37:19.417Z,60.82
2022-08-07T21:39:59.679Z,62.59
2022-08-07T21:42:48.544Z,62.61
2022-08-07T21:46:08.812Z,61.42
2022-08-07T21:48:28.501Z,60.90
2022-08-07T21:51:19.751Z,62.44
2022-08-07T21:53:54.053Z,63.14
2022-08-07T21:56:47.741Z,63.57
2022-08-07T21:59:21.974Z,62.69
2022-08-07T22:02:14.837Z,61.71
2022-08-07T22:04:51.425Z,63.29
2022-08-07T22:07:48.777Z,64.55
2022-08-07T22:10:21.008Z,64.79
2022-08-07T22:12:54.012Z,64.22
2022-08-07T22:16:43.805Z,64.98
2022-08-07T22:18:14.378Z,64.67
2022-08-07T22:20:54.645Z,64.13
2022-08-07T22:23:42.775Z,64.62
2022-08-07T22:26:13.631Z,64.17
2022-08-07T22:28:48.562Z,61.85
2022-08-07T22:31:56.456Z,61.39
2022-08-07T22:34:35.484Z,61.42
2022-08-07T22:37:05.411Z,62.88
2022-08-07T22:39:52.661Z,63.60
2022-08-07T22:42:25.878Z,64.21
2022-08-07T22:44:58.279Z,64.90
2022-08-07T22:47:28.610Z,64.11
2022-08-07T22:50:20.637Z,62.86
2022-08-07T22:52:58.427Z,64.27
2022-08-07T22:55:37.277Z,64.88
2022-08-07T22:58:09.863Z,64.59
2022-08-07T23:00:43.440Z,64.55
2022-08-07T23:03:18.374Z,63.32
2022-08-07T23:06:09.991Z,64.13
2022-08-07T23:08:46.829Z,64.75
2022-08-07T23:11:28.906Z,64.63
2022-08-07T23:14:14.627Z,63.00
2022-08-07T23:16:54.561Z,64.07
2022-08-07T23:19:51.195Z,63.96
2022-08-07T23:22:37.064Z,63.78
2022-08-07T23:25:12.501Z,63.93
2022-08-07T23:28:21.549Z,63.87
2022-08-07T23:30:38.106Z,63.80
2022-08-07T23:34:23.629Z,63.71
2022-08-07T23:36:01.169Z,63.99
2022-08-07T23:38:57.020Z,62.96
2022-08-07T23:41:47.513Z,62.46
2022-08-07T23:44:33.517Z,63.40
2022-08-07T23:47:06.784Z,62.51
2022-08-07T23:49:52.801Z,61.34
2022-08-07T23:52:59.666Z,62.48
2022-08-07T23:55:52.962Z,61.33
2022-08-07T23:58:21.131Z,61.97
